QTR1188 OTHH-OEJN
Flight info
| Callsign | QTR1188 |
|---|---|
| Flight time | 2h 11m |
| Altitude | 32000 |
| Route | DATRI L564 MIGMA M550 MEVDO Y511 ASMIS T218 IMGUT M309 VEMEM |
| Aircraft | A35K/H-SDE2E3GHIJ1J3J4J5LM1ORWXY/LB1D1 |
Departure
| Time | 2026-05-07 15:36 |
|---|---|
| Airport | Hamad International Airport (OTHH) |
Arrival
| Time | 2026-05-07 17:47 |
|---|---|
| Airport | King Abdulaziz International Airport (OEJN) |
| Time | Latitude | Longitude | Altitude | Speed | Heading |
|---|---|---|---|---|---|
| 2026-05-07 15:02 | 25.26067 | 51.60905 | 36 ft | 0 kts | 148° |
| 2026-05-07 15:26 | 25.26071 | 51.60903 | 35 ft | 3 kts | 148° |
| 2026-05-07 15:27 | 25.26094 | 51.60887 | 34 ft | 4 kts | 148° |
| 2026-05-07 15:27 | 25.26113 | 51.60874 | 33 ft | 4 kts | 152° |
| 2026-05-07 15:27 | 25.26137 | 51.60865 | 33 ft | 4 kts | 182° |
| 2026-05-07 15:27 | 25.26160 | 51.60873 | 33 ft | 4 kts | 233° |
| 2026-05-07 15:28 | 25.26171 | 51.60898 | 32 ft | 4 kts | 248° |
| 2026-05-07 15:28 | 25.26179 | 51.60920 | 35 ft | 0 kts | 248° |
| 2026-05-07 15:30 | 25.26175 | 51.60911 | 34 ft | 4 kts | 248° |
| 2026-05-07 15:30 | 25.26150 | 51.60841 | 36 ft | 13 kts | 248° |
| 2026-05-07 15:30 | 25.26104 | 51.60745 | 36 ft | 15 kts | 216° |
| 2026-05-07 15:30 | 25.26001 | 51.60755 | 36 ft | 17 kts | 158° |
| 2026-05-07 15:31 | 25.25887 | 51.60806 | 36 ft | 19 kts | 158° |
| 2026-05-07 15:31 | 25.25764 | 51.60860 | 36 ft | 14 kts | 159° |
| 2026-05-07 15:31 | 25.25681 | 51.60864 | 36 ft | 13 kts | 216° |
| 2026-05-07 15:31 | 25.25634 | 51.60771 | 35 ft | 15 kts | 247° |
| 2026-05-07 15:32 | 25.25608 | 51.60702 | 35 ft | 1 kts | 248° |
| 2026-05-07 15:32 | 25.25599 | 51.60677 | 34 ft | 5 kts | 248° |
| 2026-05-07 15:32 | 25.25598 | 51.60675 | 34 ft | 0 kts | 248° |
| 2026-05-07 15:33 | 25.25593 | 51.60660 | 34 ft | 5 kts | 248° |
| 2026-05-07 15:33 | 25.25581 | 51.60604 | 32 ft | 10 kts | 266° |
| 2026-05-07 15:33 | 25.25604 | 51.60522 | 31 ft | 10 kts | 316° |
| 2026-05-07 15:33 | 25.25637 | 51.60501 | 31 ft | 0 kts | 335° |
| 2026-05-07 15:34 | 25.25648 | 51.60495 | 31 ft | 3 kts | 335° |
| 2026-05-07 15:35 | 25.25675 | 51.60482 | 31 ft | 6 kts | 337° |
| 2026-05-07 15:35 | 25.25831 | 51.60413 | 34 ft | 58 kts | 338° |
| 2026-05-07 15:35 | 25.26438 | 51.60146 | 33 ft | 129 kts | 338° |
| 2026-05-07 15:35 | 25.27452 | 51.59681 | 215 ft | 172 kts | 334° |
| 2026-05-07 15:36 | 25.28510 | 51.59125 | 1088 ft | 165 kts | 336° |
| 2026-05-07 15:36 | 25.29591 | 51.58582 | 1662 ft | 177 kts | 335° |
| 2026-05-07 15:36 | 25.30773 | 51.58024 | 2106 ft | 191 kts | 336° |
| 2026-05-07 15:36 | 25.32086 | 51.57450 | 2414 ft | 216 kts | 338° |
| 2026-05-07 15:37 | 25.33579 | 51.56836 | 2746 ft | 240 kts | 339° |
| 2026-05-07 15:37 | 25.35217 | 51.56187 | 3176 ft | 260 kts | 340° |
| 2026-05-07 15:37 | 25.36971 | 51.55475 | 3669 ft | 275 kts | 339° |
| 2026-05-07 15:37 | 25.38762 | 51.54693 | 3970 ft | 277 kts | 339° |
| 2026-05-07 15:38 | 25.40547 | 51.53900 | 4191 ft | 276 kts | 339° |
| 2026-05-07 15:38 | 25.42346 | 51.53108 | 4771 ft | 279 kts | 340° |
| 2026-05-07 15:38 | 25.44146 | 51.52314 | 5680 ft | 278 kts | 341° |
| 2026-05-07 15:38 | 25.45906 | 51.51483 | 6520 ft | 280 kts | 335° |
| 2026-05-07 15:39 | 25.47458 | 51.50147 | 7214 ft | 289 kts | 310° |
| 2026-05-07 15:39 | 25.48319 | 51.48137 | 7954 ft | 295 kts | 281° |
| 2026-05-07 15:39 | 25.48411 | 51.45853 | 8727 ft | 300 kts | 267° |
| 2026-05-07 15:39 | 25.48288 | 51.43527 | 9498 ft | 305 kts | 266° |
| 2026-05-07 15:40 | 25.48154 | 51.41175 | 10316 ft | 308 kts | 266° |
| 2026-05-07 15:40 | 25.48030 | 51.38790 | 11115 ft | 312 kts | 266° |
| 2026-05-07 15:40 | 25.47914 | 51.36386 | 11989 ft | 313 kts | 266° |
| 2026-05-07 15:40 | 25.47802 | 51.33970 | 12887 ft | 316 kts | 266° |
| 2026-05-07 15:41 | 25.47729 | 51.32359 | 13475 ft | 317 kts | 266° |
| 2026-05-07 15:41 | 25.47578 | 51.29916 | 14292 ft | 319 kts | 262° |
| 2026-05-07 15:41 | 25.46913 | 51.27588 | 15025 ft | 320 kts | 238° |
| 2026-05-07 15:41 | 25.45437 | 51.25726 | 15546 ft | 329 kts | 213° |
| 2026-05-07 15:42 | 25.43311 | 51.24727 | 15894 ft | 341 kts | 188° |
| 2026-05-07 15:42 | 25.40904 | 51.24817 | 16227 ft | 355 kts | 167° |
| 2026-05-07 15:42 | 25.38403 | 51.25245 | 16517 ft | 371 kts | 176° |
| 2026-05-07 15:42 | 25.35764 | 51.25369 | 16840 ft | 386 kts | 178° |
| 2026-05-07 15:43 | 25.33054 | 51.25423 | 17325 ft | 393 kts | 179° |
| 2026-05-07 15:43 | 25.30296 | 51.25486 | 17860 ft | 400 kts | 176° |
| 2026-05-07 15:43 | 25.27536 | 51.25952 | 18396 ft | 404 kts | 165° |
| 2026-05-07 15:43 | 25.24891 | 51.27048 | 18921 ft | 409 kts | 156° |
| 2026-05-07 15:44 | 25.22310 | 51.28412 | 19434 ft | 413 kts | 154° |
| 2026-05-07 15:44 | 25.19721 | 51.29837 | 19965 ft | 418 kts | 154° |
| 2026-05-07 15:44 | 25.17107 | 51.31287 | 20558 ft | 421 kts | 154° |
| 2026-05-07 15:44 | 25.14513 | 51.32731 | 21099 ft | 425 kts | 154° |
| 2026-05-07 15:45 | 25.11859 | 51.34210 | 21611 ft | 431 kts | 154° |
| 2026-05-07 15:45 | 25.09161 | 51.35714 | 22129 ft | 436 kts | 154° |
| 2026-05-07 15:45 | 25.06446 | 51.37226 | 22709 ft | 439 kts | 154° |
| 2026-05-07 15:45 | 25.03695 | 51.38759 | 23218 ft | 445 kts | 155° |
| 2026-05-07 15:46 | 24.98110 | 51.41869 | 24152 ft | 453 kts | 155° |
| 2026-05-07 15:46 | 24.95282 | 51.43443 | 24648 ft | 457 kts | 155° |
| 2026-05-07 15:46 | 24.92437 | 51.45026 | 25170 ft | 460 kts | 155° |
| 2026-05-07 15:47 | 24.89566 | 51.46622 | 25603 ft | 463 kts | 155° |
| 2026-05-07 15:47 | 24.86681 | 51.48225 | 25786 ft | 463 kts | 156° |
| 2026-05-07 15:47 | 24.83804 | 51.49823 | 25806 ft | 464 kts | 156° |
| 2026-05-07 15:47 | 24.80908 | 51.51431 | 25803 ft | 465 kts | 156° |
| 2026-05-07 15:48 | 24.78053 | 51.53015 | 25801 ft | 466 kts | 156° |
| 2026-05-07 15:48 | 24.75079 | 51.54510 | 25801 ft | 463 kts | 161° |
| 2026-05-07 15:48 | 24.72034 | 51.55485 | 25802 ft | 460 kts | 171° |
| 2026-05-07 15:48 | 24.68867 | 51.55855 | 25803 ft | 456 kts | 181° |
| 2026-05-07 15:49 | 24.65713 | 51.55674 | 25794 ft | 454 kts | 188° |
| 2026-05-07 15:49 | 24.62592 | 51.55139 | 25796 ft | 453 kts | 193° |
| 2026-05-07 15:49 | 24.59512 | 51.54419 | 25796 ft | 452 kts | 194° |
| 2026-05-07 15:49 | 24.56446 | 51.53626 | 25796 ft | 452 kts | 195° |
| 2026-05-07 15:50 | 24.53377 | 51.52820 | 25796 ft | 452 kts | 195° |
| 2026-05-07 15:50 | 24.50310 | 51.52033 | 25796 ft | 453 kts | 194° |
| 2026-05-07 15:50 | 24.47279 | 51.51279 | 25796 ft | 453 kts | 194° |
| 2026-05-07 15:50 | 24.44202 | 51.50534 | 25793 ft | 453 kts | 194° |
| 2026-05-07 15:51 | 24.41121 | 51.49801 | 25790 ft | 453 kts | 194° |
| 2026-05-07 15:51 | 24.38039 | 51.49076 | 25795 ft | 453 kts | 194° |
| 2026-05-07 15:51 | 24.34957 | 51.48353 | 25796 ft | 454 kts | 194° |
| 2026-05-07 15:51 | 24.31855 | 51.47626 | 25796 ft | 454 kts | 194° |
| 2026-05-07 15:52 | 24.28762 | 51.46901 | 25925 ft | 456 kts | 194° |
| 2026-05-07 15:52 | 24.25649 | 51.46171 | 26405 ft | 460 kts | 194° |
| 2026-05-07 15:52 | 24.22482 | 51.45538 | 26893 ft | 465 kts | 189° |
| 2026-05-07 15:52 | 24.19243 | 51.45289 | 27584 ft | 466 kts | 184° |
| 2026-05-07 15:53 | 24.16009 | 51.45209 | 28374 ft | 464 kts | 184° |
| 2026-05-07 15:53 | 24.12786 | 51.45192 | 29161 ft | 462 kts | 183° |
| 2026-05-07 15:53 | 24.09580 | 51.45206 | 29893 ft | 460 kts | 183° |
| 2026-05-07 15:53 | 24.06387 | 51.45232 | 30505 ft | 458 kts | 183° |
| 2026-05-07 15:54 | 24.03205 | 51.45258 | 31077 ft | 458 kts | 183° |
| 2026-05-07 15:54 | 24.00011 | 51.45280 | 31414 ft | 458 kts | 183° |
| 2026-05-07 15:54 | 23.96834 | 51.45298 | 31659 ft | 457 kts | 184° |
| 2026-05-07 15:54 | 23.93615 | 51.45310 | 31787 ft | 467 kts | 184° |
| 2026-05-07 15:55 | 23.90322 | 51.45317 | 31791 ft | 479 kts | 184° |
| 2026-05-07 15:55 | 23.83581 | 51.45333 | 31787 ft | 490 kts | 183° |
| 2026-05-07 15:56 | 23.76760 | 51.45361 | 31788 ft | 490 kts | 183° |
| 2026-05-07 15:56 | 23.69942 | 51.45388 | 31780 ft | 490 kts | 183° |
| 2026-05-07 15:57 | 23.63127 | 51.45412 | 31779 ft | 490 kts | 183° |
| 2026-05-07 15:57 | 23.56307 | 51.45435 | 31782 ft | 490 kts | 183° |
| 2026-05-07 15:58 | 23.49477 | 51.45457 | 31777 ft | 491 kts | 183° |
| 2026-05-07 15:58 | 23.42649 | 51.45510 | 31776 ft | 491 kts | 182° |
| 2026-05-07 15:59 | 23.35812 | 51.45629 | 31779 ft | 492 kts | 182° |
| 2026-05-07 15:59 | 23.28960 | 51.45751 | 31776 ft | 492 kts | 182° |
| 2026-05-07 16:00 | 23.22105 | 51.45741 | 31774 ft | 490 kts | 187° |
| 2026-05-07 16:00 | 23.15488 | 51.44245 | 31776 ft | 483 kts | 202° |
| 2026-05-07 16:01 | 23.09669 | 51.40724 | 31777 ft | 479 kts | 220° |
| 2026-05-07 16:01 | 23.05183 | 51.35475 | 31774 ft | 478 kts | 237° |
| 2026-05-07 16:02 | 23.02375 | 51.28970 | 31775 ft | 478 kts | 253° |
| 2026-05-07 16:02 | 23.01307 | 51.21859 | 31777 ft | 479 kts | 264° |
| 2026-05-07 16:03 | 23.00984 | 51.14629 | 31779 ft | 480 kts | 266° |
| 2026-05-07 16:03 | 23.00743 | 51.07386 | 31780 ft | 480 kts | 266° |
| 2026-05-07 16:04 | 23.00426 | 51.00151 | 31781 ft | 480 kts | 265° |
| 2026-05-07 16:04 | 23.00060 | 50.92926 | 31781 ft | 479 kts | 265° |
| 2026-05-07 16:05 | 22.99683 | 50.85763 | 31785 ft | 478 kts | 265° |
| 2026-05-07 16:05 | 22.99303 | 50.78568 | 31785 ft | 477 kts | 265° |
| 2026-05-07 16:06 | 22.98919 | 50.71331 | 31785 ft | 477 kts | 265° |
| 2026-05-07 16:06 | 22.98539 | 50.64188 | 31789 ft | 477 kts | 265° |
| 2026-05-07 16:07 | 22.98153 | 50.56997 | 31788 ft | 477 kts | 265° |
| 2026-05-07 16:07 | 22.97763 | 50.49804 | 31789 ft | 477 kts | 265° |
| 2026-05-07 16:08 | 22.97371 | 50.42624 | 31788 ft | 477 kts | 265° |
| 2026-05-07 16:08 | 22.96975 | 50.35434 | 31789 ft | 477 kts | 265° |
| 2026-05-07 16:09 | 22.96576 | 50.28256 | 31787 ft | 476 kts | 265° |
| 2026-05-07 16:09 | 22.96176 | 50.21120 | 31787 ft | 476 kts | 265° |
| 2026-05-07 16:10 | 22.95768 | 50.13900 | 31790 ft | 477 kts | 265° |
| 2026-05-07 16:10 | 22.95360 | 50.06725 | 31790 ft | 477 kts | 265° |
| 2026-05-07 16:11 | 22.94950 | 49.99580 | 31790 ft | 477 kts | 265° |
| 2026-05-07 16:11 | 22.94535 | 49.92398 | 31790 ft | 476 kts | 264° |
| 2026-05-07 16:12 | 22.94118 | 49.85233 | 31790 ft | 475 kts | 264° |
| 2026-05-07 16:12 | 22.93698 | 49.78082 | 31789 ft | 475 kts | 264° |
| 2026-05-07 16:13 | 22.93274 | 49.70933 | 31793 ft | 475 kts | 264° |
| 2026-05-07 16:13 | 22.92849 | 49.63790 | 31794 ft | 474 kts | 264° |
| 2026-05-07 16:14 | 22.92419 | 49.56645 | 31796 ft | 474 kts | 264° |
| 2026-05-07 16:14 | 22.91988 | 49.49515 | 31795 ft | 474 kts | 264° |
| 2026-05-07 16:15 | 22.91556 | 49.42428 | 31800 ft | 474 kts | 264° |
| 2026-05-07 16:15 | 22.91118 | 49.35298 | 31796 ft | 474 kts | 264° |
| 2026-05-07 16:16 | 22.90677 | 49.28169 | 31797 ft | 474 kts | 264° |
| 2026-05-07 16:16 | 22.90232 | 49.21035 | 31797 ft | 474 kts | 264° |
| 2026-05-07 16:17 | 22.89784 | 49.13899 | 31796 ft | 474 kts | 264° |
| 2026-05-07 16:17 | 22.89332 | 49.06759 | 31802 ft | 474 kts | 264° |
| 2026-05-07 16:18 | 22.88879 | 48.99634 | 31800 ft | 473 kts | 264° |
| 2026-05-07 16:18 | 22.88422 | 48.92508 | 31796 ft | 473 kts | 264° |
| 2026-05-07 16:19 | 22.87966 | 48.85436 | 31804 ft | 472 kts | 264° |
| 2026-05-07 16:19 | 22.87504 | 48.78341 | 31804 ft | 471 kts | 264° |
| 2026-05-07 16:20 | 22.87040 | 48.71250 | 31805 ft | 471 kts | 264° |
| 2026-05-07 16:20 | 22.86572 | 48.64153 | 31799 ft | 471 kts | 264° |
| 2026-05-07 16:21 | 22.86101 | 48.57056 | 31806 ft | 472 kts | 264° |
| 2026-05-07 16:21 | 22.85630 | 48.50007 | 31809 ft | 472 kts | 264° |
| 2026-05-07 16:22 | 22.85153 | 48.42920 | 31816 ft | 472 kts | 263° |
| 2026-05-07 16:22 | 22.84673 | 48.35822 | 31817 ft | 471 kts | 263° |
| 2026-05-07 16:23 | 22.84189 | 48.28728 | 31808 ft | 471 kts | 263° |
| 2026-05-07 16:23 | 22.83702 | 48.21631 | 31806 ft | 471 kts | 263° |
| 2026-05-07 16:24 | 22.83213 | 48.14542 | 31817 ft | 472 kts | 263° |
| 2026-05-07 16:24 | 22.82720 | 48.07448 | 31817 ft | 472 kts | 263° |
| 2026-05-07 16:25 | 22.82223 | 48.00353 | 31812 ft | 472 kts | 263° |
| 2026-05-07 16:25 | 22.81724 | 47.93259 | 31826 ft | 472 kts | 263° |
| 2026-05-07 16:26 | 22.81225 | 47.86214 | 31818 ft | 470 kts | 263° |
| 2026-05-07 16:26 | 22.80721 | 47.79147 | 31824 ft | 470 kts | 263° |
| 2026-05-07 16:27 | 22.80214 | 47.72075 | 31825 ft | 470 kts | 263° |
| 2026-05-07 16:27 | 22.79704 | 47.65007 | 31830 ft | 470 kts | 263° |
| 2026-05-07 16:28 | 22.79190 | 47.57941 | 31843 ft | 470 kts | 263° |
| 2026-05-07 16:28 | 22.78762 | 47.52076 | 31840 ft | 469 kts | 263° |
| 2026-05-07 16:29 | 22.78161 | 47.43888 | 31842 ft | 469 kts | 263° |
| 2026-05-07 16:29 | 22.77639 | 47.36829 | 31852 ft | 469 kts | 263° |
| 2026-05-07 16:30 | 22.77203 | 47.30978 | 31849 ft | 468 kts | 263° |
| 2026-05-07 16:30 | 22.76677 | 47.23944 | 31858 ft | 468 kts | 263° |
| 2026-05-07 16:31 | 22.76367 | 47.16888 | 31859 ft | 471 kts | 270° |
| 2026-05-07 16:31 | 22.76800 | 47.09811 | 31858 ft | 471 kts | 271° |
| 2026-05-07 16:32 | 22.77363 | 47.02742 | 31866 ft | 470 kts | 272° |
| 2026-05-07 16:32 | 22.77937 | 46.95735 | 31867 ft | 469 kts | 271° |
| 2026-05-07 16:33 | 22.78499 | 46.88679 | 31869 ft | 469 kts | 271° |
| 2026-05-07 16:33 | 22.79049 | 46.81622 | 31869 ft | 469 kts | 271° |
| 2026-05-07 16:34 | 22.79595 | 46.74568 | 31874 ft | 469 kts | 271° |
| 2026-05-07 16:34 | 22.80137 | 46.67516 | 31877 ft | 469 kts | 271° |
| 2026-05-07 16:35 | 22.80673 | 46.60511 | 31887 ft | 469 kts | 271° |
| 2026-05-07 16:35 | 22.81210 | 46.53456 | 31891 ft | 469 kts | 271° |
| 2026-05-07 16:36 | 22.81743 | 46.46416 | 31900 ft | 468 kts | 271° |
| 2026-05-07 16:36 | 22.82271 | 46.39392 | 31900 ft | 467 kts | 271° |
| 2026-05-07 16:37 | 22.82793 | 46.32371 | 31896 ft | 467 kts | 271° |
| 2026-05-07 16:37 | 22.83311 | 46.25356 | 31894 ft | 467 kts | 271° |
| 2026-05-07 16:38 | 22.83824 | 46.18345 | 31903 ft | 467 kts | 271° |
| 2026-05-07 16:38 | 22.84338 | 46.11316 | 31896 ft | 467 kts | 271° |
| 2026-05-07 16:39 | 22.84849 | 46.04295 | 31894 ft | 467 kts | 271° |
| 2026-05-07 16:39 | 22.85356 | 45.97276 | 31891 ft | 467 kts | 270° |
| 2026-05-07 16:40 | 22.85859 | 45.90267 | 31892 ft | 466 kts | 270° |
| 2026-05-07 16:40 | 22.86354 | 45.83316 | 31892 ft | 465 kts | 270° |
| 2026-05-07 16:41 | 22.86849 | 45.76325 | 31891 ft | 465 kts | 270° |
| 2026-05-07 16:41 | 22.87340 | 45.69343 | 31892 ft | 464 kts | 270° |
| 2026-05-07 16:42 | 22.87828 | 45.62358 | 31893 ft | 464 kts | 270° |
| 2026-05-07 16:42 | 22.88313 | 45.55377 | 31895 ft | 464 kts | 270° |
| 2026-05-07 16:43 | 22.88792 | 45.48443 | 31898 ft | 464 kts | 270° |
| 2026-05-07 16:43 | 22.89271 | 45.41462 | 31885 ft | 464 kts | 270° |
| 2026-05-07 16:44 | 22.89748 | 45.34464 | 31889 ft | 463 kts | 270° |
| 2026-05-07 16:44 | 22.90220 | 45.27498 | 31895 ft | 463 kts | 270° |
| 2026-05-07 16:45 | 22.90687 | 45.20541 | 31903 ft | 463 kts | 270° |
| 2026-05-07 16:45 | 22.91152 | 45.13582 | 31900 ft | 463 kts | 270° |
| 2026-05-07 16:46 | 22.91614 | 45.06661 | 31894 ft | 463 kts | 270° |
| 2026-05-07 16:46 | 22.92075 | 44.99697 | 31896 ft | 462 kts | 270° |
| 2026-05-07 16:47 | 22.92527 | 44.92731 | 31893 ft | 463 kts | 270° |
| 2026-05-07 16:47 | 22.92978 | 44.85765 | 31895 ft | 463 kts | 270° |
| 2026-05-07 16:48 | 22.93426 | 44.78799 | 31910 ft | 463 kts | 270° |
| 2026-05-07 16:48 | 22.93873 | 44.71829 | 31905 ft | 463 kts | 270° |
| 2026-05-07 16:49 | 22.94051 | 44.64870 | 31905 ft | 460 kts | 265° |
| 2026-05-07 16:49 | 22.93811 | 44.57938 | 31899 ft | 459 kts | 263° |
| 2026-05-07 16:50 | 22.93503 | 44.51034 | 31899 ft | 458 kts | 263° |
| 2026-05-07 16:50 | 22.93188 | 44.44165 | 31903 ft | 458 kts | 263° |
| 2026-05-07 16:51 | 22.92876 | 44.37260 | 31901 ft | 458 kts | 263° |
| 2026-05-07 16:51 | 22.92567 | 44.30375 | 31905 ft | 457 kts | 263° |
| 2026-05-07 16:52 | 22.92256 | 44.23491 | 31907 ft | 457 kts | 263° |
| 2026-05-07 16:52 | 22.91941 | 44.16600 | 31909 ft | 457 kts | 263° |
| 2026-05-07 16:53 | 22.91623 | 44.09707 | 31912 ft | 457 kts | 263° |
| 2026-05-07 16:53 | 22.91303 | 44.02834 | 31934 ft | 457 kts | 263° |
| 2026-05-07 16:54 | 22.90979 | 43.95949 | 31929 ft | 458 kts | 263° |
| 2026-05-07 16:54 | 22.90653 | 43.89080 | 31927 ft | 458 kts | 263° |
| 2026-05-07 16:55 | 22.90324 | 43.82177 | 31947 ft | 457 kts | 263° |
| 2026-05-07 16:55 | 22.89991 | 43.75286 | 31941 ft | 458 kts | 263° |
| 2026-05-07 16:56 | 22.89655 | 43.68380 | 31953 ft | 458 kts | 263° |
| 2026-05-07 16:56 | 22.89145 | 43.58025 | 31974 ft | 459 kts | 263° |
| 2026-05-07 16:57 | 22.88799 | 43.51100 | 31982 ft | 460 kts | 263° |
| 2026-05-07 16:57 | 22.88453 | 43.44213 | 31983 ft | 460 kts | 263° |
| 2026-05-07 16:58 | 22.88102 | 43.37269 | 31990 ft | 462 kts | 263° |
| 2026-05-07 16:58 | 22.87745 | 43.30295 | 31997 ft | 463 kts | 264° |
| 2026-05-07 16:59 | 22.87385 | 43.23304 | 32015 ft | 464 kts | 264° |
| 2026-05-07 16:59 | 22.87022 | 43.16315 | 32018 ft | 465 kts | 264° |
| 2026-05-07 17:00 | 22.86658 | 43.09359 | 32031 ft | 465 kts | 264° |
| 2026-05-07 17:00 | 22.86288 | 43.02359 | 32040 ft | 464 kts | 263° |
| 2026-05-07 17:01 | 22.85915 | 42.95362 | 32030 ft | 464 kts | 263° |
| 2026-05-07 17:01 | 22.85540 | 42.88370 | 32029 ft | 464 kts | 263° |
| 2026-05-07 17:02 | 22.85162 | 42.81380 | 32032 ft | 464 kts | 263° |
| 2026-05-07 17:02 | 22.84781 | 42.74395 | 32041 ft | 464 kts | 263° |
| 2026-05-07 17:03 | 22.84395 | 42.67405 | 32034 ft | 464 kts | 264° |
| 2026-05-07 17:03 | 22.84008 | 42.60434 | 32050 ft | 463 kts | 263° |
| 2026-05-07 17:04 | 22.83621 | 42.53512 | 32042 ft | 463 kts | 263° |
| 2026-05-07 17:04 | 22.83228 | 42.46551 | 32048 ft | 463 kts | 263° |
| 2026-05-07 17:05 | 22.82833 | 42.39588 | 32055 ft | 463 kts | 263° |
| 2026-05-07 17:05 | 22.82437 | 42.32652 | 32052 ft | 460 kts | 263° |
| 2026-05-07 17:06 | 22.82038 | 42.25739 | 32050 ft | 459 kts | 263° |
| 2026-05-07 17:06 | 22.81636 | 42.18827 | 32069 ft | 459 kts | 262° |
| 2026-05-07 17:07 | 22.81235 | 42.11958 | 32053 ft | 455 kts | 262° |
| 2026-05-07 17:07 | 22.80832 | 42.05118 | 32044 ft | 455 kts | 262° |
| 2026-05-07 17:08 | 22.80422 | 41.98250 | 32066 ft | 458 kts | 262° |
| 2026-05-07 17:08 | 22.80011 | 41.91381 | 32053 ft | 455 kts | 262° |
| 2026-05-07 17:09 | 22.79533 | 41.84601 | 32050 ft | 453 kts | 261° |
| 2026-05-07 17:09 | 22.78850 | 41.77807 | 32050 ft | 453 kts | 260° |
| 2026-05-07 17:10 | 22.78152 | 41.71033 | 32053 ft | 451 kts | 260° |
| 2026-05-07 17:10 | 22.77483 | 41.64264 | 32051 ft | 451 kts | 260° |
| 2026-05-07 17:11 | 22.76829 | 41.57504 | 32048 ft | 451 kts | 260° |
| 2026-05-07 17:11 | 22.76177 | 41.50756 | 32045 ft | 449 kts | 260° |
| 2026-05-07 17:12 | 22.75522 | 41.44026 | 32047 ft | 450 kts | 260° |
| 2026-05-07 17:12 | 22.74862 | 41.37283 | 32047 ft | 451 kts | 260° |
| 2026-05-07 17:13 | 22.73853 | 41.30614 | 32048 ft | 445 kts | 251° |
| 2026-05-07 17:13 | 22.71816 | 41.24362 | 32042 ft | 442 kts | 247° |
| 2026-05-07 17:14 | 22.69553 | 41.18169 | 32043 ft | 442 kts | 246° |
| 2026-05-07 17:14 | 22.67255 | 41.11986 | 32051 ft | 442 kts | 246° |
| 2026-05-07 17:15 | 22.64977 | 41.05814 | 32037 ft | 440 kts | 246° |
| 2026-05-07 17:15 | 22.62705 | 40.99645 | 32034 ft | 441 kts | 246° |
| 2026-05-07 17:16 | 22.60430 | 40.93468 | 32037 ft | 441 kts | 246° |
| 2026-05-07 17:16 | 22.58157 | 40.87298 | 32035 ft | 440 kts | 246° |
| 2026-05-07 17:17 | 22.56273 | 40.82191 | 32040 ft | 439 kts | 246° |
| 2026-05-07 17:17 | 22.54640 | 40.77763 | 32039 ft | 439 kts | 246° |
| 2026-05-07 17:18 | 22.52142 | 40.71003 | 32037 ft | 439 kts | 246° |
| 2026-05-07 17:18 | 22.50241 | 40.65869 | 32043 ft | 439 kts | 246° |
| 2026-05-07 17:19 | 22.47976 | 40.59763 | 32042 ft | 440 kts | 246° |
| 2026-05-07 17:19 | 22.45695 | 40.53620 | 32053 ft | 440 kts | 246° |
| 2026-05-07 17:20 | 22.43413 | 40.47480 | 32074 ft | 440 kts | 246° |
| 2026-05-07 17:20 | 22.41132 | 40.41354 | 32055 ft | 438 kts | 246° |
| 2026-05-07 17:21 | 22.38856 | 40.35250 | 32062 ft | 437 kts | 246° |
| 2026-05-07 17:21 | 22.36578 | 40.29150 | 32057 ft | 438 kts | 246° |
| 2026-05-07 17:22 | 22.34295 | 40.23043 | 32063 ft | 438 kts | 246° |
| 2026-05-07 17:22 | 22.32013 | 40.16946 | 32045 ft | 438 kts | 246° |
| 2026-05-07 17:23 | 22.29728 | 40.10849 | 32025 ft | 438 kts | 246° |
| 2026-05-07 17:23 | 22.27442 | 40.04758 | 32026 ft | 438 kts | 246° |
| 2026-05-07 17:24 | 22.24582 | 39.99037 | 31999 ft | 435 kts | 236° |
| 2026-05-07 17:24 | 22.21239 | 39.93585 | 31974 ft | 436 kts | 236° |
| 2026-05-07 17:25 | 22.17885 | 39.88115 | 31980 ft | 437 kts | 236° |
| 2026-05-07 17:25 | 22.14544 | 39.82650 | 31822 ft | 432 kts | 236° |
| 2026-05-07 17:26 | 22.12815 | 39.80017 | 31509 ft | 435 kts | 229° |
| 2026-05-07 17:26 | 22.10504 | 39.77869 | 31211 ft | 445 kts | 214° |
| 2026-05-07 17:26 | 22.07645 | 39.76508 | 30897 ft | 456 kts | 199° |
| 2026-05-07 17:26 | 22.04467 | 39.76069 | 30590 ft | 470 kts | 184° |
| 2026-05-07 17:27 | 22.01224 | 39.76592 | 30274 ft | 484 kts | 169° |
| 2026-05-07 17:27 | 21.97996 | 39.77716 | 29940 ft | 488 kts | 169° |
| 2026-05-07 17:27 | 21.94697 | 39.78463 | 29558 ft | 483 kts | 178° |
| 2026-05-07 17:27 | 21.91371 | 39.78662 | 29175 ft | 475 kts | 186° |
| 2026-05-07 17:28 | 21.88118 | 39.78242 | 28809 ft | 466 kts | 197° |
| 2026-05-07 17:28 | 21.85104 | 39.77049 | 28433 ft | 458 kts | 210° |
| 2026-05-07 17:28 | 21.82509 | 39.75121 | 28054 ft | 452 kts | 224° |
| 2026-05-07 17:28 | 21.80483 | 39.72569 | 27708 ft | 449 kts | 237° |
| 2026-05-07 17:29 | 21.79138 | 39.69540 | 27324 ft | 450 kts | 251° |
| 2026-05-07 17:29 | 21.78566 | 39.66228 | 26940 ft | 452 kts | 265° |
| 2026-05-07 17:29 | 21.78821 | 39.62874 | 26559 ft | 450 kts | 279° |
| 2026-05-07 17:29 | 21.79930 | 39.59783 | 26194 ft | 436 kts | 296° |
| 2026-05-07 17:30 | 21.81776 | 39.57279 | 25835 ft | 421 kts | 313° |
| 2026-05-07 17:30 | 21.84066 | 39.55419 | 25486 ft | 403 kts | 321° |
| 2026-05-07 17:30 | 21.86151 | 39.53626 | 25134 ft | 376 kts | 309° |
| 2026-05-07 17:30 | 21.87806 | 39.51554 | 24796 ft | 358 kts | 299° |
| 2026-05-07 17:31 | 21.89042 | 39.49266 | 24446 ft | 350 kts | 291° |
| 2026-05-07 17:31 | 21.89946 | 39.46854 | 24012 ft | 344 kts | 282° |
| 2026-05-07 17:31 | 21.90397 | 39.44353 | 23589 ft | 337 kts | 271° |
| 2026-05-07 17:31 | 21.90215 | 39.41870 | 23077 ft | 331 kts | 253° |
| 2026-05-07 17:32 | 21.89443 | 39.39551 | 22538 ft | 326 kts | 246° |
| 2026-05-07 17:32 | 21.88539 | 39.37365 | 22063 ft | 313 kts | 245° |
| 2026-05-07 17:32 | 21.87650 | 39.35280 | 21581 ft | 300 kts | 245° |
| 2026-05-07 17:32 | 21.86790 | 39.33271 | 21066 ft | 291 kts | 245° |
| 2026-05-07 17:33 | 21.85966 | 39.31347 | 20552 ft | 283 kts | 245° |
| 2026-05-07 17:33 | 21.85151 | 39.29447 | 20019 ft | 276 kts | 245° |
| 2026-05-07 17:33 | 21.84350 | 39.27578 | 19376 ft | 275 kts | 245° |
| 2026-05-07 17:33 | 21.83544 | 39.25703 | 18665 ft | 277 kts | 244° |
| 2026-05-07 17:34 | 21.82503 | 39.23968 | 17976 ft | 276 kts | 226° |
| 2026-05-07 17:34 | 21.80866 | 39.22910 | 17224 ft | 280 kts | 197° |
| 2026-05-07 17:34 | 21.78919 | 39.22893 | 16499 ft | 287 kts | 170° |
| 2026-05-07 17:34 | 21.77008 | 39.23555 | 15781 ft | 290 kts | 163° |
| 2026-05-07 17:35 | 21.75122 | 39.24327 | 15065 ft | 290 kts | 163° |
| 2026-05-07 17:35 | 21.73234 | 39.25099 | 14376 ft | 290 kts | 163° |
| 2026-05-07 17:35 | 21.71345 | 39.25858 | 13737 ft | 288 kts | 163° |
| 2026-05-07 17:35 | 21.69471 | 39.26609 | 13037 ft | 287 kts | 163° |
| 2026-05-07 17:36 | 21.67613 | 39.27352 | 12384 ft | 282 kts | 163° |
| 2026-05-07 17:36 | 21.65782 | 39.28080 | 11767 ft | 279 kts | 162° |
| 2026-05-07 17:36 | 21.63976 | 39.28797 | 11184 ft | 275 kts | 162° |
| 2026-05-07 17:36 | 21.62187 | 39.29506 | 10594 ft | 272 kts | 162° |
| 2026-05-07 17:37 | 21.60420 | 39.30202 | 10021 ft | 269 kts | 162° |
| 2026-05-07 17:37 | 21.58682 | 39.30881 | 9557 ft | 262 kts | 161° |
| 2026-05-07 17:37 | 21.56982 | 39.31545 | 9030 ft | 257 kts | 161° |
| 2026-05-07 17:37 | 21.55310 | 39.32198 | 8507 ft | 254 kts | 161° |
| 2026-05-07 17:38 | 21.53665 | 39.32841 | 8011 ft | 249 kts | 161° |
| 2026-05-07 17:38 | 21.52053 | 39.33472 | 7560 ft | 244 kts | 161° |
| 2026-05-07 17:38 | 21.50478 | 39.34090 | 7102 ft | 237 kts | 160° |
| 2026-05-07 17:38 | 21.48948 | 39.34689 | 6648 ft | 231 kts | 160° |
| 2026-05-07 17:39 | 21.47463 | 39.35269 | 6212 ft | 224 kts | 160° |
| 2026-05-07 17:39 | 21.46012 | 39.35837 | 5735 ft | 221 kts | 160° |
| 2026-05-07 17:39 | 21.44569 | 39.36306 | 5373 ft | 218 kts | 172° |
| 2026-05-07 17:39 | 21.43147 | 39.36036 | 5195 ft | 205 kts | 206° |
| 2026-05-07 17:40 | 21.42175 | 39.34972 | 5052 ft | 202 kts | 240° |
| 2026-05-07 17:40 | 21.41706 | 39.33559 | 4923 ft | 200 kts | 252° |
| 2026-05-07 17:40 | 21.41527 | 39.32082 | 4771 ft | 204 kts | 274° |
| 2026-05-07 17:40 | 21.42110 | 39.30689 | 4633 ft | 209 kts | 304° |
| 2026-05-07 17:41 | 21.43108 | 39.29538 | 4477 ft | 211 kts | 313° |
| 2026-05-07 17:41 | 21.44152 | 39.28448 | 4352 ft | 208 kts | 313° |
| 2026-05-07 17:41 | 21.45184 | 39.27373 | 4194 ft | 206 kts | 313° |
| 2026-05-07 17:41 | 21.46253 | 39.26349 | 4047 ft | 207 kts | 321° |
| 2026-05-07 17:42 | 21.47516 | 39.25614 | 3862 ft | 206 kts | 337° |
| 2026-05-07 17:42 | 21.48850 | 39.25090 | 3617 ft | 203 kts | 339° |
| 2026-05-07 17:42 | 21.50171 | 39.24571 | 3345 ft | 200 kts | 337° |
| 2026-05-07 17:42 | 21.51459 | 39.24055 | 3067 ft | 196 kts | 338° |
| 2026-05-07 17:43 | 21.52724 | 39.23555 | 2810 ft | 192 kts | 339° |
| 2026-05-07 17:43 | 21.53964 | 39.23065 | 2577 ft | 189 kts | 338° |
| 2026-05-07 17:43 | 21.55189 | 39.22579 | 2349 ft | 186 kts | 339° |
| 2026-05-07 17:43 | 21.56387 | 39.22105 | 2108 ft | 181 kts | 340° |
| 2026-05-07 17:44 | 21.57545 | 39.21648 | 1862 ft | 171 kts | 341° |
| 2026-05-07 17:44 | 21.58598 | 39.21232 | 1658 ft | 157 kts | 341° |
| 2026-05-07 17:44 | 21.59578 | 39.20843 | 1454 ft | 142 kts | 342° |
| 2026-05-07 17:44 | 21.60456 | 39.20497 | 1288 ft | 128 kts | 343° |
| 2026-05-07 17:45 | 21.61285 | 39.20171 | 1137 ft | 127 kts | 342° |
| 2026-05-07 17:45 | 21.62114 | 39.19842 | 986 ft | 127 kts | 342° |
| 2026-05-07 17:45 | 21.62949 | 39.19497 | 809 ft | 130 kts | 342° |
| 2026-05-07 17:45 | 21.63806 | 39.19147 | 680 ft | 133 kts | 343° |
| 2026-05-07 17:46 | 21.64683 | 39.18811 | 500 ft | 133 kts | 344° |
| 2026-05-07 17:46 | 21.65555 | 39.18479 | 329 ft | 132 kts | 344° |
| 2026-05-07 17:46 | 21.66401 | 39.18136 | 160 ft | 128 kts | 342° |
| 2026-05-07 17:46 | 21.67233 | 39.17813 | 44 ft | 122 kts | 341° |
| 2026-05-07 17:47 | 21.67935 | 39.17542 | 38 ft | 89 kts | 340° |
| 2026-05-07 17:47 | 21.68396 | 39.17361 | 32 ft | 52 kts | 340° |
| 2026-05-07 17:47 | 21.68634 | 39.17268 | 32 ft | 29 kts | 340° |
| 2026-05-07 17:47 | 21.68792 | 39.17196 | 31 ft | 21 kts | 327° |
| 2026-05-07 17:48 | 21.68875 | 39.17094 | 32 ft | 17 kts | 306° |
| 2026-05-07 17:48 | 21.68950 | 39.16987 | 32 ft | 19 kts | 308° |
| 2026-05-07 17:48 | 21.69028 | 39.16895 | 31 ft | 11 kts | 322° |
| 2026-05-07 17:48 | 21.69105 | 39.16849 | 31 ft | 14 kts | 340° |
| 2026-05-07 17:49 | 21.69205 | 39.16810 | 30 ft | 14 kts | 340° |
| 2026-05-07 17:49 | 21.69253 | 39.16762 | 30 ft | 7 kts | 275° |
| 2026-05-07 17:49 | 21.69227 | 39.16717 | 30 ft | 8 kts | 206° |
| 2026-05-07 17:49 | 21.69166 | 39.16725 | 31 ft | 11 kts | 165° |
| 2026-05-07 17:50 | 21.69085 | 39.16755 | 31 ft | 14 kts | 158° |
| 2026-05-07 17:50 | 21.68982 | 39.16798 | 32 ft | 18 kts | 159° |
| 2026-05-07 17:50 | 21.68858 | 39.16847 | 32 ft | 20 kts | 160° |
| 2026-05-07 17:50 | 21.68715 | 39.16903 | 33 ft | 23 kts | 159° |
| 2026-05-07 17:51 | 21.68609 | 39.16946 | 33 ft | 17 kts | 159° |
| 2026-05-07 17:51 | 21.68513 | 39.16985 | 33 ft | 12 kts | 161° |
| 2026-05-07 17:51 | 21.68422 | 39.17020 | 34 ft | 15 kts | 160° |
| 2026-05-07 17:51 | 21.68314 | 39.17062 | 34 ft | 17 kts | 160° |
| 2026-05-07 17:52 | 21.68192 | 39.17110 | 35 ft | 20 kts | 160° |
| 2026-05-07 17:52 | 21.68109 | 39.17142 | 35 ft | 9 kts | 160° |
| 2026-05-07 17:52 | 21.68089 | 39.17150 | 35 ft | 0 kts | 160° |
| 2026-05-07 17:53 | 21.68084 | 39.17152 | 36 ft | 2 kts | 160° |
| 2026-05-07 17:53 | 21.68056 | 39.17163 | 36 ft | 7 kts | 159° |
| 2026-05-07 17:54 | 21.68001 | 39.17183 | 36 ft | 9 kts | 169° |
| 2026-05-07 17:54 | 21.67967 | 39.17158 | 36 ft | 7 kts | 236° |
| 2026-05-07 17:54 | 21.67940 | 39.17093 | 36 ft | 12 kts | 249° |
| 2026-05-07 17:54 | 21.67908 | 39.16999 | 36 ft | 15 kts | 250° |
| 2026-05-07 17:55 | 21.67868 | 39.16881 | 36 ft | 18 kts | 249° |
| 2026-05-07 17:55 | 21.67791 | 39.16804 | 36 ft | 17 kts | 181° |
| 2026-05-07 17:55 | 21.67672 | 39.16843 | 37 ft | 19 kts | 158° |
| 2026-05-07 17:55 | 21.67538 | 39.16902 | 37 ft | 22 kts | 156° |
| 2026-05-07 17:56 | 21.67396 | 39.16969 | 38 ft | 23 kts | 155° |
| 2026-05-07 17:56 | 21.67312 | 39.17002 | 38 ft | 8 kts | 180° |
| 2026-05-07 17:56 | 21.67252 | 39.17016 | 39 ft | 10 kts | 148° |
| 2026-05-07 17:56 | 21.67213 | 39.17050 | 39 ft | 3 kts | 139° |
| 2026-05-07 17:57 | 21.67210 | 39.17053 | 39 ft | 0 kts | 139° |